Time;durP1;ratioP1;P1;durP2;ratioP2;P2;SDS_P1;SDS_P2;PMS_P1;PMS_P2;Temp;Humidity;BMP_temperature;BMP_pressure;BME280_temperature;BME280_humidity;BME280_pressure;Samples;Min_cycle;Max_cycle;Signal;HPM_P1;HPM_P2
2022/12/22 03:25:55;;;;;;;;;;;;;;;12.71;61.71;101304.22;7406960;19;683;-66
2022/12/22 03:28:24;;;;;;;;;;;;;;;12.60;61.89;101303.91;7405423;19;897;-66
2022/12/22 03:30:56;;;;;;;;;;;;;;;12.56;61.85;101291.75;7405926;19;963;-66
2022/12/22 03:33:28;;;;;;;;;;;;;;;12.52;61.66;101291.03;7405826;19;987;-67
2022/12/22 03:35:57;;;;;;;;;;;;;;;12.58;61.26;101289.00;7403226;19;1849;-67
2022/12/22 03:38:25;;;;;;;;;;;;;;;12.61;61.84;101287.03;7405555;19;994;-67
2022/12/22 03:40:54;;;;;;;;;;;;;;;12.66;61.55;101285.00;7405078;19;1048;-67
2022/12/22 03:49:08;;;;;;;;;;;;;;;12.70;61.51;101267.13;7406241;19;761;-66
2022/12/22 03:51:37;;;;;;;;;;;;;;;12.70;61.50;101289.22;7404568;19;1080;-66
2022/12/22 03:54:05;;;;;;;;;;;;;;;12.68;61.43;101285.78;7405061;19;1005;-66
2022/12/22 03:56:34;;;;;;;;;;;;;;;12.66;61.72;101287.66;7402802;19;1857;-66
2022/12/22 03:59:02;;;;;;;;;;;;;;;12.57;61.53;101260.75;7408148;19;992;-66
2022/12/22 04:01:31;;;;;;;;;;;;;;;12.52;61.82;101295.50;7402876;19;1462;-66
2022/12/22 04:04:02;;;;;;;;;;;;;;;12.45;61.97;101286.97;7404820;19;1014;-66
2022/12/22 04:06:30;;;;;;;;;;;;;;;12.57;62.02;101301.41;7404671;19;1014;-66
2022/12/22 04:08:58;;;;;;;;;;;;;;;12.63;61.68;101297.56;7404212;19;1051;-66
2022/12/22 04:14:07;;;;;;;;;;;;;;;12.67;61.40;101300.00;7404010;19;683;-66
2022/12/22 04:16:35;;;;;;;;;;;;;;;12.68;61.49;101288.44;7402160;19;1913;-66
2022/12/22 04:19:08;;;;;;;;;;;;;;;12.72;61.30;101289.97;7404242;19;1015;-65
2022/12/22 04:21:37;;;;;;;;;;;;;;;12.73;61.26;101304.97;7404166;19;1086;-67
2022/12/22 04:24:05;;;;;;;;;;;;;;;12.71;61.70;101311.28;7403660;19;1012;-67
2022/12/22 04:26:34;;;;;;;;;;;;;;;12.56;61.78;101310.31;7403478;19;1099;-67
2022/12/22 04:29:02;;;;;;;;;;;;;;;12.52;61.75;101316.72;7403794;19;944;-65
2022/12/22 04:31:30;;;;;;;;;;;;;;;12.53;61.99;101306.03;7403399;19;996;-66
2022/12/22 04:33:59;;;;;;;;;;;;;;;12.53;61.82;101297.19;7403357;19;1016;-65
2022/12/22 04:36:29;;;;;;;;;;;;;;;12.60;61.82;101316.31;7401842;19;1893;-65
2022/12/22 04:38:58;;;;;;;;;;;;;;;12.58;61.52;101303.13;7403122;19;948;-66
2022/12/22 04:41:26;;;;;;;;;;;;;;;12.63;61.48;101287.81;7402865;19;996;-66
2022/12/22 04:43:54;;;;;;;;;;;;;;;12.69;61.28;101307.84;7403104;19;941;-66
2022/12/22 04:46:23;;;;;;;;;;;;;;;12.69;61.19;101290.16;7403014;19;1032;-66
2022/12/22 04:48:51;;;;;;;;;;;;;;;12.72;61.34;101302.41;7402870;19;1167;-66
2022/12/22 04:51:19;;;;;;;;;;;;;;;12.70;61.30;101291.88;7400890;19;1474;-66
2022/12/22 04:53:50;;;;;;;;;;;;;;;12.73;61.15;101289.06;7401248;19;1756;-65
2022/12/22 04:56:18;;;;;;;;;;;;;;;12.71;61.30;101306.84;7401933;19;1855;-66
2022/12/22 04:58:47;;;;;;;;;;;;;;;12.69;61.29;101303.44;7400100;19;957;-66
2022/12/22 05:01:16;;;;;;;;;;;;;;;12.54;61.25;101289.16;7401322;19;1468;-66
2022/12/22 05:03:45;;;;;;;;;;;;;;;12.51;61.82;101299.06;7402269;19;993;-66
2022/12/22 05:06:13;;;;;;;;;;;;;;;12.49;61.53;101299.19;7402098;19;1131;-66
2022/12/22 05:08:41;;;;;;;;;;;;;;;12.55;61.84;101292.66;7402204;19;1448;-66
2022/12/22 05:11:12;;;;;;;;;;;;;;;12.62;61.81;101310.00;7402155;19;992;-66
2022/12/22 05:13:41;;;;;;;;;;;;;;;12.55;61.63;101290.00;7401960;19;1004;-66
2022/12/22 05:16:10;;;;;;;;;;;;;;;12.48;61.63;101294.78;7400075;19;1841;-66
2022/12/22 05:18:39;;;;;;;;;;;;;;;12.44;61.94;101297.69;7401138;19;977;-65
2022/12/22 05:21:08;;;;;;;;;;;;;;;12.38;62.06;101295.38;7402340;19;920;-66
2022/12/22 05:23:36;;;;;;;;;;;;;;;12.35;61.74;101314.91;7402250;19;997;-66
2022/12/22 05:26:05;;;;;;;;;;;;;;;12.37;62.04;101301.59;7401696;19;1031;-66
2022/12/22 05:28:36;;;;;;;;;;;;;;;12.45;61.82;101296.75;7402093;19;944;-66
2022/12/22 05:31:05;;;;;;;;;;;;;;;12.51;62.13;101304.38;7402016;19;980;-66
2022/12/22 05:33:33;;;;;;;;;;;;;;;12.45;61.81;101294.94;7401909;19;1051;-66
2022/12/22 05:36:01;;;;;;;;;;;;;;;12.46;61.64;101295.81;7400704;19;1853;-66
2022/12/22 05:38:30;;;;;;;;;;;;;;;12.40;61.80;101297.00;7401791;19;960;-65
2022/12/22 05:40:58;;;;;;;;;;;;;;;12.42;61.58;101296.91;7399888;19;1387;-65
2022/12/22 05:43:27;;;;;;;;;;;;;;;12.46;61.73;101299.31;7401305;19;1055;-66
2022/12/22 05:45:58;;;;;;;;;;;;;;;12.53;61.77;101298.06;7401240;19;1001;-65
2022/12/22 05:48:26;;;;;;;;;;;;;;;12.64;61.66;101304.59;7401103;19;1201;-66
2022/12/22 05:50:54;;;;;;;;;;;;;;;12.61;61.66;101310.91;7401092;19;976;-66
2022/12/22 05:53:23;;;;;;;;;;;;;;;12.65;61.25;101293.91;7400859;19;1072;-67
2022/12/22 05:55:51;;;;;;;;;;;;;;;12.69;61.21;101307.84;7400458;19;1850;-67
2022/12/22 05:58:19;;;;;;;;;;;;;;;12.72;61.30;101305.91;7400820;19;1229;-67
2022/12/22 06:00:48;;;;;;;;;;;;;;;12.70;61.40;101299.81;7400447;19;1423;-67
2022/12/22 06:03:19;;;;;;;;;;;;;;;12.74;61.10;101296.06;7400736;19;1011;-67
2022/12/22 06:05:47;;;;;;;;;;;;;;;12.73;61.29;101304.97;7400711;19;809;-67
2022/12/22 06:08:15;;;;;;;;;;;;;;;12.73;61.09;101297.03;7400608;19;993;-67
2022/12/22 06:10:43;;;;;;;;;;;;;;;12.65;61.35;101288.63;7405992;19;1031;-66
2022/12/22 06:13:12;;;;;;;;;;;;;;;12.61;61.26;101310.91;7408008;19;1004;-66
2022/12/22 06:15:40;;;;;;;;;;;;;;;12.51;61.71;101296.41;7407457;19;1852;-66
2022/12/22 06:18:08;;;;;;;;;;;;;;;12.46;61.64;101293.16;7407814;19;1083;-65
2022/12/22 06:20:39;;;;;;;;;;;;;;;12.51;61.75;101294.66;7405363;19;1466;-67
2022/12/22 06:23:08;;;;;;;;;;;;;;;12.52;61.43;101290.19;7407790;19;1008;-67
2022/12/22 06:25:36;;;;;;;;;;;;;;;12.56;61.64;101286.44;7408032;19;964;-67
2022/12/22 06:28:04;;;;;;;;;;;;;;;12.61;61.29;101289.69;7407540;19;1005;-67
2022/12/22 06:30:33;;;;;;;;;;;;;;;12.61;61.43;101284.38;7407810;19;992;-67
2022/12/22 06:33:02;;;;;;;;;;;;;;;12.66;61.38;101289.47;7407384;19;1013;-67
2022/12/22 06:35:30;;;;;;;;;;;;;;;12.65;61.16;101285.97;7407094;19;1842;-67
2022/12/22 06:38:01;;;;;;;;;;;;;;;12.68;61.40;101292.88;7407158;19;1005;-67
2022/12/22 06:40:30;;;;;;;;;;;;;;;12.67;61.13;101300.00;7404439;19;1476;-67
2022/12/22 06:43:07;;;;;;;;;;;;;;;12.65;61.53;101299.22;7407005;19;1008;-67
2022/12/22 06:45:36;;;;;;;;;;;;;;;12.52;61.31;101279.56;7407485;19;980;-67
2022/12/22 06:48:04;;;;;;;;;;;;;;;12.51;61.64;101299.06;7406967;19;992;-67
2022/12/22 06:50:33;;;;;;;;;;;;;;;12.50;61.65;101281.47;7406823;19;961;-67
2022/12/22 06:53:04;;;;;;;;;;;;;;;12.48;61.75;101288.63;7406611;19;1092;-67
2022/12/22 06:55:32;;;;;;;;;;;;;;;12.55;61.56;101290.00;7407003;19;1849;-67
2022/12/22 06:58:02;;;;;;;;;;;;;;;12.58;61.37;101284.56;7406519;19;980;-67
2022/12/22 07:00:30;;;;;;;;;;;;;;;12.64;61.30;101294.00;7406528;19;1096;-67
2022/12/22 07:02:58;;;;;;;;;;;;;;;12.65;60.99;101285.97;7404390;19;1469;-67
2022/12/22 07:05:29;;;;;;;;;;;;;;;12.68;61.28;101296.41;7406532;19;1012;-67
2022/12/22 07:07:57;;;;;;;;;;;;;;;12.76;61.23;101311.06;7407044;19;986;-67
2022/12/22 07:13:17;;;;;;;;;;;;;;;12.58;61.47;101289.88;7403274;19;1013;-67
2022/12/22 07:15:46;;;;;;;;;;;;;;;12.51;61.80;101296.41;7403229;19;1836;-67
2022/12/22 07:18:14;;;;;;;;;;;;;;;12.50;61.76;101292.06;7405816;19;1072;-67
2022/12/22 07:20:43;;;;;;;;;;;;;;;12.46;61.52;101298.47;7404478;19;1008;-67
2022/12/22 07:23:11;;;;;;;;;;;;;;;12.54;61.40;101285.66;7404988;19;1000;-67
2022/12/22 07:25:42;;;;;;;;;;;;;;;12.58;61.56;101303.13;7405665;19;949;-67
2022/12/22 07:28:10;;;;;;;;;;;;;;;12.62;61.32;101296.72;7406009;19;996;-67
2022/12/22 07:30:38;;;;;;;;;;;;;;;12.62;61.43;101312.63;7405496;19;992;-67
2022/12/22 07:33:07;;;;;;;;;;;;;;;12.61;61.07;101304.75;7405491;19;1027;-67
2022/12/22 07:35:35;;;;;;;;;;;;;;;12.65;60.98;101293.91;7405866;19;963;-67
2022/12/22 07:38:03;;;;;;;;;;;;;;;12.68;61.27;101304.34;7402855;19;1838;-67
2022/12/22 07:40:32;;;;;;;;;;;;;;;12.65;61.10;101298.34;7405722;19;1031;-67
2022/12/22 07:43:00;;;;;;;;;;;;;;;12.60;61.15;101293.28;7405029;19;1060;-67
2022/12/22 07:45:29;;;;;;;;;;;;;;;12.53;61.34;101299.84;7405511;19;943;-67
2022/12/22 07:48:00;;;;;;;;;;;;;;;12.48;61.59;101300.09;7405334;19;934;-67
2022/12/22 07:50:27;;;;;;;;;;;;;;;12.49;61.15;101314.22;7404798;19;1024;-67
2022/12/22 07:52:56;;;;;;;;;;;;;;;12.56;61.41;101307.66;7404670;19;988;-67
2022/12/22 07:55:25;;;;;;;;;;;;;;;12.61;61.19;101302.09;7405138;19;1010;-67
2022/12/22 07:57:53;;;;;;;;;;;;;;;12.65;61.29;101293.91;7403058;19;1861;-67
2022/12/22 08:00:25;;;;;;;;;;;;;;;12.67;60.99;101300.00;7404734;19;1053;-67
2022/12/22 08:02:54;;;;;;;;;;;;;;;12.73;60.78;101299.69;7402772;19;1383;-67
2022/12/22 08:05:22;;;;;;;;;;;;;;;12.72;60.90;101287.34;7404288;19;985;-67
2022/12/22 08:07:51;;;;;;;;;;;;;;;12.68;61.24;101307.00;7404732;19;927;-67
2022/12/22 08:10:20;;;;;;;;;;;;;;;12.59;61.00;101302.19;7404690;19;940;-67
2022/12/22 08:12:48;;;;;;;;;;;;;;;12.60;61.31;101308.38;7404531;19;943;-67
2022/12/22 08:15:17;;;;;;;;;;;;;;;12.50;61.33;101300.88;7404362;19;1006;-67
2022/12/22 08:17:48;;;;;;;;;;;;;;;12.55;61.64;101305.94;7402250;19;1857;-67
2022/12/22 08:20:16;;;;;;;;;;;;;;;12.57;61.38;101301.41;7404293;19;929;-67
2022/12/22 08:22:44;;;;;;;;;;;;;;;12.60;61.29;101303.91;7403808;19;1055;-67
2022/12/22 08:25:13;;;;;;;;;;;;;;;12.69;61.31;101291.94;7403697;19;1009;-67
2022/12/22 08:27:46;;;;;;;;;;;;;;;12.67;61.11;101284.09;7403512;19;1079;-66
2022/12/22 08:30:15;;;;;;;;;;;;;;;12.67;60.92;101297.34;7403450;19;1005;-66
2022/12/22 08:32:44;;;;;;;;;;;;;;;12.65;61.42;101304.53;7402916;19;961;-67
2022/12/22 08:35:15;;;;;;;;;;;;;;;12.54;61.38;101310.38;7403381;19;1020;-65
2022/12/22 08:37:44;;;;;;;;;;;;;;;12.61;61.29;101302.09;7401533;19;1842;-65
2022/12/22 08:40:16;;;;;;;;;;;;;;;12.52;61.63;101301.66;7403265;19;1003;-66
2022/12/22 08:42:44;;;;;;;;;;;;;;;12.51;61.48;101289.34;7403416;19;998;-67
2022/12/22 08:45:13;;;;;;;;;;;;;;;12.59;61.31;101275.66;7403527;19;968;-66
2022/12/22 08:47:41;;;;;;;;;;;;;;;12.64;61.34;101292.19;7402955;19;1052;-66
2022/12/22 08:50:10;;;;;;;;;;;;;;;12.65;61.11;101275.34;7403313;19;1002;-66
2022/12/22 08:52:41;;;;;;;;;;;;;;;12.69;61.17;101286.63;7403201;19;939;-66
2022/12/22 08:55:11;;;;;;;;;;;;;;;12.65;61.24;101271.81;7402735;19;951;-66
2022/12/22 08:57:39;;;;;;;;;;;;;;;12.64;61.30;101284.22;7401450;19;1838;-67
2022/12/22 09:00:11;;;;;;;;;;;;;;;12.59;61.45;101275.66;7402551;19;988;-67
2022/12/22 09:02:40;;;;;;;;;;;;;;;12.52;61.62;101271.63;7400821;19;1358;-67
2022/12/22 09:05:09;;;;;;;;;;;;;;;12.52;61.27;101268.97;7400555;19;1760;-67
2022/12/22 09:07:37;;;;;;;;;;;;;;;12.52;61.52;101283.09;7402205;19;949;-66
2022/12/22 09:10:09;;;;;;;;;;;;;;;12.57;61.38;101266.91;7402280;19;1060;-67
2022/12/22 09:12:37;;;;;;;;;;;;;;;12.61;61.25;101268.47;7402220;19;956;-66
2022/12/22 09:15:07;;;;;;;;;;;;;;;12.58;61.24;101258.03;7402103;19;945;-66
2022/12/22 09:17:36;;;;;;;;;;;;;;;12.48;61.66;101262.09;7401183;19;1861;-67
2022/12/22 09:20:05;;;;;;;;;;;;;;;12.46;61.53;101264.00;7402015;19;1016;-66
2022/12/22 09:22:34;;;;;;;;;;;;;;;12.40;61.61;101262.50;7402318;19;992;-65
2022/12/22 09:25:02;;;;;;;;;;;;;;;12.51;61.91;101264.59;7401888;19;1004;-66
2022/12/22 09:27:34;;;;;;;;;;;;;;;12.66;61.30;101255.81;7400304;19;1433;-65
2022/12/22 09:30:02;;;;;;;;;;;;;;;12.65;61.29;101264.72;7401703;19;948;-66
2022/12/22 09:32:30;;;;;;;;;;;;;;;12.63;61.31;101253.31;7401584;19;992;-67
2022/12/22 09:34:59;;;;;;;;;;;;;;;12.57;61.14;101251.00;7401640;19;1012;-67
2022/12/22 09:37:27;;;;;;;;;;;;;;;12.57;61.56;101261.59;7400631;19;1849;-66
2022/12/22 09:39:55;;;;;;;;;;;;;;;12.53;61.65;101260.06;7401292;19;1055;-66
2022/12/22 09:42:24;;;;;;;;;;;;;;;12.61;61.38;101257.00;7401654;19;1008;-66
2022/12/22 09:44:55;;;;;;;;;;;;;;;12.63;60.97;101249.81;7408309;19;865;-66
2022/12/22 09:47:27;;;;;;;;;;;;;;;12.60;61.32;101250.00;7415925;19;992;-66
2022/12/22 09:49:58;;;;;;;;;;;;;;;12.56;61.43;101243.13;7415772;19;998;-67
2022/12/22 09:52:32;;;;;;;;;;;;;;;12.54;61.38;101227.31;7415744;19;954;-67
2022/12/22 09:55:00;;;;;;;;;;;;;;;12.54;61.43;101236.09;7415660;19;1134;-66
2022/12/22 09:57:31;;;;;;;;;;;;;;;12.64;61.53;101241.78;7414403;19;1855;-66
2022/12/22 10:00:03;;;;;;;;;;;;;;;12.66;61.40;101233.75;7415645;19;968;-66
2022/12/22 10:02:35;;;;;;;;;;;;;;;12.67;60.97;101228.38;7413423;19;1375;-65
2022/12/22 10:05:16;;;;;;;;;;;;;;;12.66;61.18;101223.13;7415475;19;997;-66
2022/12/22 10:07:44;;;;;;;;;;;;;;;12.61;61.46;101226.00;7415313;19;938;-67
2022/12/22 10:10:23;;;;;;;;;;;;;;;12.57;61.38;101221.81;7414929;19;1088;-67
2022/12/22 10:12:53;;;;;;;;;;;;;;;12.52;61.54;101222.06;7415255;19;971;-67
2022/12/22 10:15:25;;;;;;;;;;;;;;;12.58;61.23;101217.38;7414640;19;1075;-67
2022/12/22 10:17:54;;;;;;;;;;;;;;;12.65;61.06;101194.88;7412805;19;1849;-66
2022/12/22 10:20:24;;;;;;;;;;;;;;;12.69;60.83;101186.69;7415066;19;1071;-66
2022/12/22 10:22:53;;;;;;;;;;;;;;;12.74;60.92;101189.06;7414970;19;995;-67
2022/12/22 10:25:27;;;;;;;;;;;;;;;12.72;60.93;101197.09;7414971;19;964;-67
2022/12/22 10:27:57;;;;;;;;;;;;;;;12.68;61.15;101186.75;7413113;19;991;-67
2022/12/22 10:30:29;;;;;;;;;;;;;;;12.61;61.31;101185.38;7414717;19;994;-66
2022/12/22 10:33:05;;;;;;;;;;;;;;;12.59;61.39;101176.63;7414649;19;1153;-67
2022/12/22 10:35:50;;;;;;;;;;;;;;;12.62;61.41;101168.53;7414324;19;1008;-66
2022/12/22 10:38:24;;;;;;;;;;;;;;;12.63;61.38;101181.69;7412600;19;1847;-67
2022/12/22 10:40:54;;;;;;;;;;;;;;;12.69;61.00;101151.31;7412332;19;1384;-66
2022/12/22 10:43:24;;;;;;;;;;;;;;;12.73;60.93;101143.09;7414326;19;995;-66
2022/12/22 10:45:56;;;;;;;;;;;;;;;12.77;60.96;101150.88;7414011;19;1005;-66
2022/12/22 10:48:29;;;;;;;;;;;;;;;12.71;60.99;101139.69;7414235;19;935;-66
2022/12/22 10:50:57;;;;;;;;;;;;;;;12.75;60.97;101132.38;7414128;19;997;-66
2022/12/22 10:53:39;;;;;;;;;;;;;;;12.72;60.76;101128.13;7414068;19;990;-67
2022/12/22 10:56:08;;;;;;;;;;;;;;;12.81;60.95;101120.56;7410919;19;985;-66
2022/12/22 10:58:47;;;;;;;;;;;;;;;12.92;60.36;101112.88;7405030;19;1849;-66
2022/12/22 11:01:24;;;;;;;;;;;;;;;13.01;60.53;101117.66;7405195;19;1365;-66
2022/12/22 11:03:52;;;;;;;;;;;;;;;13.05;60.31;101123.63;7406436;19;976;-66
2022/12/22 11:06:21;;;;;;;;;;;;;;;13.01;60.27;101122.97;7406195;19;1017;-66
2022/12/22 11:08:49;;;;;;;;;;;;;;;12.97;60.37;101115.25;7406271;19;996;-66
2022/12/22 11:11:20;;;;;;;;;;;;;;;13.05;60.15;101105.94;7406254;19;1008;-66
2022/12/22 11:13:54;;;;;;;;;;;;;;;13.16;60.14;101118.56;7406607;19;988;-66
2022/12/22 11:16:30;;;;;;;;;;;;;;;13.17;60.19;101108.78;7406028;19;1095;-66
2022/12/22 11:19:05;;;;;;;;;;;;;;;13.12;59.94;101096.63;7404063;19;1849;-67
2022/12/22 11:21:39;;;;;;;;;;;;;;;13.09;60.00;101099.50;7405958;19;1056;-66
2022/12/22 11:24:16;;;;;;;;;;;;;;;13.11;60.07;101102.91;7403722;19;1371;-66
2022/12/22 11:26:47;;;;;;;;;;;;;;;13.22;60.10;101110.25;7405681;19;1059;-67
2022/12/22 11:29:25;;;;;;;;;;;;;;;13.29;59.76;101102.75;7405594;19;1013;-66
2022/12/22 11:32:03;;;;;;;;;;;;;;;13.23;59.84;101096.03;7406048;19;1026;-66
2022/12/22 11:34:46;;;;;;;;;;;;;;;13.23;59.98;101111.97;7405585;19;1020;-66
2022/12/22 11:37:26;;;;;;;;;;;;;;;13.23;60.27;101111.09;7405509;19;1855;-66
2022/12/22 11:39:55;;;;;;;;;;;;;;;13.29;59.79;101105.41;7405263;19;1032;-67
2022/12/22 11:42:32;;;;;;;;;;;;;;;13.35;59.64;101094.50;7405462;19;1360;-67
2022/12/22 11:45:09;;;;;;;;;;;;;;;13.31;59.86;101087.66;7405593;19;913;-67
2022/12/22 11:47:46;;;;;;;;;;;;;;;13.22;60.24;101101.44;7405435;19;946;-66
2022/12/22 11:50:24;;;;;;;;;;;;;;;13.19;60.09;101078.56;7405256;19;990;-67
2022/12/22 11:52:59;;;;;;;;;;;;;;;13.26;60.16;101079.06;7404905;19;972;-66
2022/12/22 11:55:31;;;;;;;;;;;;;;;13.31;59.90;101069.91;7405098;19;1101;-66
2022/12/22 11:58:08;;;;;;;;;;;;;;;13.31;60.12;101071.72;7404361;19;1857;-66
2022/12/22 12:00:42;;;;;;;;;;;;;;;13.24;59.99;101070.31;7404082;19;1122;-67
2022/12/22 12:03:36;;;;;;;;;;;;;;;13.19;60.13;101069.72;7402663;19;1383;-66
2022/12/22 12:06:11;;;;;;;;;;;;;;;13.20;60.26;101047.56;7404327;19;943;-65
2022/12/22 12:08:44;;;;;;;;;;;;;;;13.30;60.10;101056.72;7403092;19;887;-66
2022/12/22 12:11:18;;;;;;;;;;;;;;;13.30;60.14;101054.91;7404242;19;1033;-67
2022/12/22 12:13:51;;;;;;;;;;;;;;;13.23;60.13;101057.97;7404595;19;1013;-66
2022/12/22 12:16:25;;;;;;;;;;;;;;;13.13;60.28;101057.69;7403997;19;1071;-65
2022/12/22 12:19:04;;;;;;;;;;;;;;;13.09;60.50;101046.38;7402494;19;1857;-67
2022/12/22 12:21:40;;;;;;;;;;;;;;;13.22;60.12;101058.94;7404369;19;998;-66
2022/12/22 12:24:17;;;;;;;;;;;;;;;13.27;60.41;101041.78;7404226;19;1131;-67
2022/12/22 12:26:49;;;;;;;;;;;;;;;13.23;60.36;101037.59;7404096;19;1009;-66
2022/12/22 12:29:20;;;;;;;;;;;;;;;13.13;60.42;101044.41;7404077;19;935;-66
2022/12/22 12:31:50;;;;;;;;;;;;;;;13.14;60.75;101048.75;7403449;19;1001;-67
2022/12/22 12:34:23;;;;;;;;;;;;;;;13.20;60.35;101048.41;7403944;19;1089;-67
2022/12/22 12:36:55;;;;;;;;;;;;;;;13.26;60.55;101041.88;7403794;19;909;-67
2022/12/22 12:39:26;;;;;;;;;;;;;;;13.21;60.39;101041.28;7401648;19;1842;-67
2022/12/22 12:42:00;;;;;;;;;;;;;;;13.13;60.71;101058.53;7403564;19;1010;-67
2022/12/22 12:44:30;;;;;;;;;;;;;;;13.11;60.56;101048.94;7403618;19;997;-67
2022/12/22 12:47:05;;;;;;;;;;;;;;;13.12;60.84;101056.81;7403082;19;1028;-66
2022/12/22 12:49:48;;;;;;;;;;;;;;;13.10;60.70;101058.69;7403417;19;930;-66
2022/12/22 12:52:19;;;;;;;;;;;;;;;13.17;60.41;101053.03;7402278;19;977;-67
2022/12/22 12:54:48;;;;;;;;;;;;;;;13.07;60.65;101053.59;7402693;19;1184;-67
2022/12/22 12:57:27;;;;;;;;;;;;;;;13.04;60.95;101053.75;7402756;19;1020;-66
2022/12/22 12:59:56;;;;;;;;;;;;;;;13.01;60.80;101053.06;7402646;19;1297;-66
2022/12/22 13:02:34;;;;;;;;;;;;;;;13.03;60.77;101038.78;7401094;19;1429;-66
2022/12/22 13:05:05;;;;;;;;;;;;;;;13.02;60.98;101045.03;7402554;19;975;-66
2022/12/22 13:07:48;;;;;;;;;;;;;;;13.04;60.78;101048.44;7402749;19;1086;-66
2022/12/22 13:10:23;;;;;;;;;;;;;;;12.91;61.09;101040.34;7400567;19;1454;-67
2022/12/22 13:12:53;;;;;;;;;;;;;;;12.97;61.27;101041.81;7402709;19;979;-66
2022/12/22 13:15:31;;;;;;;;;;;;;;;13.02;61.05;101049.50;7402168;19;1007;-67
2022/12/22 13:18:00;;;;;;;;;;;;;;;12.98;61.16;101046.16;7400420;19;1841;-66
2022/12/22 13:20:31;;;;;;;;;;;;;;;12.96;60.99;101040.06;7399744;19;1070;-67
2022/12/22 13:23:01;;;;;;;;;;;;;;;12.93;61.22;101042.91;7400113;19;1388;-66
2022/12/22 13:25:43;;;;;;;;;;;;;;;12.88;61.35;101039.66;7402316;19;998;-66
2022/12/22 13:28:16;;;;;;;;;;;;;;;12.89;61.48;101026.31;7401672;19;1112;-67
2022/12/22 13:30:47;;;;;;;;;;;;;;;12.97;61.08;101036.50;7401672;19;1017;-67
2022/12/22 13:33:17;;;;;;;;;;;;;;;13.05;61.02;101028.06;7402017;19;968;-66
2022/12/22 13:35:47;;;;;;;;;;;;;;;12.98;60.91;101027.56;7402023;19;956;-66
2022/12/22 13:38:28;;;;;;;;;;;;;;;12.89;61.30;101022.78;7401025;19;1860;-66
2022/12/22 13:40:59;;;;;;;;;;;;;;;12.87;61.50;101032.63;7401452;19;942;-66
2022/12/22 13:43:28;;;;;;;;;;;;;;;12.99;61.25;101017.78;7399558;19;960;-67
2022/12/22 13:45:58;;;;;;;;;;;;;;;13.04;60.82;101015.75;7401327;19;1071;-67
2022/12/22 13:48:29;;;;;;;;;;;;;;;12.97;61.18;101020.56;7401613;19;1024;-66
2022/12/22 13:51:00;;;;;;;;;;;;;;;12.83;61.54;101007.22;7401498;19;990;-67
2022/12/22 13:53:31;;;;;;;;;;;;;;;12.87;61.65;101016.72;7401497;19;916;-67
2022/12/22 13:56:03;;;;;;;;;;;;;;;12.85;61.37;101018.59;7399483;19;1477;-66
2022/12/22 13:58:32;;;;;;;;;;;;;;;12.96;61.15;101013.53;7400413;19;1845;-66
2022/12/22 14:01:16;;;;;;;;;;;;;;;12.91;61.53;101012.94;7400283;19;1457;-66
2022/12/22 14:03:48;;;;;;;;;;;;;;;12.89;61.25;101021.00;7400891;19;971;-66
2022/12/22 14:06:20;;;;;;;;;;;;;;;12.85;61.43;101015.94;7400408;19;961;-66
2022/12/22 14:08:49;;;;;;;;;;;;;;;12.82;61.57;101008.19;7400825;19;999;-66
2022/12/22 14:11:20;;;;;;;;;;;;;;;12.76;61.79;101005.88;7400791;19;941;-66
2022/12/22 14:13:48;;;;;;;;;;;;;;;12.79;61.81;100998.56;7400242;19;1000;-66
2022/12/22 14:16:17;;;;;;;;;;;;;;;12.81;61.65;101006.47;7400504;19;990;-66
2022/12/22 14:18:45;;;;;;;;;;;;;;;12.74;61.75;101006.81;7399271;19;1861;-67
2022/12/22 14:21:14;;;;;;;;;;;;;;;12.76;61.73;101012.03;7400086;19;1113;-65
2022/12/22 14:23:43;;;;;;;;;;;;;;;12.68;61.95;101009.81;7399948;19;1079;-67
2022/12/22 14:26:15;;;;;;;;;;;;;;;12.70;62.06;101007.94;7400588;19;919;-66
2022/12/22 14:28:49;;;;;;;;;;;;;;;12.74;61.85;101004.16;7400374;19;923;-66
2022/12/22 14:31:18;;;;;;;;;;;;;;;12.72;62.02;100991.94;7403931;19;969;-66
2022/12/22 14:33:52;;;;;;;;;;;;;;;12.68;61.92;100991.25;7407487;19;1016;-66
2022/12/22 14:36:22;;;;;;;;;;;;;;;12.67;62.00;100986.91;7405126;19;1478;-66
2022/12/22 14:38:52;;;;;;;;;;;;;;;12.65;62.17;100999.41;7406677;19;1849;-66
2022/12/22 14:44:06;;;;;;;;;;;;;;;12.76;61.77;100974.91;7404047;19;1305;-66
2022/12/22 14:46:34;;;;;;;;;;;;;;;12.75;61.68;100991.75;7407104;19;945;-66
2022/12/22 14:49:03;;;;;;;;;;;;;;;12.74;61.72;100977.63;7407420;19;939;-65
2022/12/22 14:51:31;;;;;;;;;;;;;;;12.78;61.79;100974.81;7406922;19;1043;-65
2022/12/22 14:54:01;;;;;;;;;;;;;;;12.99;61.20;100965.59;7405475;19;1518;-66
2022/12/22 14:56:30;;;;;;;;;;;;;;;12.96;61.26;100981.69;7409949;19;1435;-66
2022/12/22 14:59:22;;;;;;;;;;;;;;;12.90;61.39;100966.13;7407662;19;1841;-65
2022/12/22 15:01:57;;;;;;;;;;;;;;;12.76;61.60;100964.28;7404819;19;1431;-67
2022/12/22 15:04:26;;;;;;;;;;;;;;;12.73;61.95;100959.13;7406194;19;1255;-66
2022/12/22 15:07:05;;;;;;;;;;;;;;;12.69;61.98;100961.13;7409804;19;1397;-66
2022/12/22 15:09:33;;;;;;;;;;;;;;;12.72;61.96;100960.94;7400293;19;900;-65
2022/12/22 15:12:07;;;;;;;;;;;;;;;12.75;61.80;100957.25;7405993;19;996;-67
2022/12/22 15:14:39;;;;;;;;;;;;;;;12.79;61.69;100966.72;7403902;19;1401;-66
2022/12/22 15:17:09;;;;;;;;;;;;;;;12.70;61.88;100972.59;7406475;19;983;-67
2022/12/22 15:19:38;;;;;;;;;;;;;;;12.67;62.22;100970.09;7403399;19;1849;-66
2022/12/22 15:22:08;;;;;;;;;;;;;;;12.69;61.85;100952.31;7406324;19;998;-67
2022/12/22 15:24:36;;;;;;;;;;;;;;;12.79;61.83;100955.28;7405835;19;985;-66
2022/12/22 15:27:05;;;;;;;;;;;;;;;12.79;61.74;100968.53;7405793;19;953;-67
2022/12/22 15:29:33;;;;;;;;;;;;;;;12.70;62.09;100968.13;7405799;19;921;-67
2022/12/22 15:32:04;;;;;;;;;;;;;;;12.69;62.07;100952.31;7405522;19;1063;-67
2022/12/22 15:34:33;;;;;;;;;;;;;;;12.64;62.00;100939.31;7406041;19;974;-66
2022/12/22 15:37:02;;;;;;;;;;;;;;;12.63;62.26;100961.47;7405919;19;997;-67
2022/12/22 15:39:30;;;;;;;;;;;;;;;12.64;61.94;100949.94;7404029;19;1838;-67
2022/12/22 15:41:58;;;;;;;;;;;;;;;12.69;61.81;100963.78;7403358;19;985;-67
2022/12/22 15:44:27;;;;;;;;;;;;;;;12.73;61.80;100956.47;7405142;19;1064;-66
2022/12/22 15:46:56;;;;;;;;;;;;;;;12.76;61.92;100964.28;7405451;19;1547;-67
2022/12/22 15:49:29;;;;;;;;;;;;;;;12.69;61.96;100963.78;7405440;19;936;-66
2022/12/22 15:52:00;;;;;;;;;;;;;;;12.65;61.98;100961.38;7405263;19;980;-67
2022/12/22 15:54:31;;;;;;;;;;;;;;;12.60;61.88;100950.19;7404671;19;996;-66
2022/12/22 15:57:00;;;;;;;;;;;;;;;12.63;62.10;100952.66;7405244;19;978;-67
2022/12/22 15:59:29;;;;;;;;;;;;;;;12.71;62.02;100950.41;7403764;19;1853;-66
2022/12/22 16:01:58;;;;;;;;;;;;;;;12.74;61.77;100956.41;7403257;19;1405;-67
2022/12/22 16:04:29;;;;;;;;;;;;;;;12.74;61.88;100960.84;7404390;19;1036;-66
2022/12/22 16:06:58;;;;;;;;;;;;;;;12.68;61.89;100972.69;7404814;19;990;-66
2022/12/22 16:09:28;;;;;;;;;;;;;;;12.58;62.02;100966.22;7404338;19;1103;-67
2022/12/22 16:11:56;;;;;;;;;;;;;;;12.57;62.33;100964.47;7404249;19;866;-67
2022/12/22 16:14:25;;;;;;;;;;;;;;;12.61;62.09;100966.00;7404175;19;985;-66
2022/12/22 16:16:53;;;;;;;;;;;;;;;12.67;61.85;100960.38;7402440;19;1557;-67
2022/12/22 16:19:22;;;;;;;;;;;;;;;12.74;62.01;100977.63;7403547;19;1841;-66
2022/12/22 16:21:54;;;;;;;;;;;;;;;12.75;61.78;100973.16;7403999;19;957;-67
2022/12/22 16:24:25;;;;;;;;;;;;;;;12.68;61.97;100978.00;7402231;19;1384;-67
2022/12/22 16:26:55;;;;;;;;;;;;;;;12.53;62.09;100958.53;7403743;19;944;-66
2022/12/22 16:29:24;;;;;;;;;;;;;;;12.56;62.41;100962.78;7403683;19;1032;-67
2022/12/22 16:31:52;;;;;;;;;;;;;;;12.60;62.08;100953.69;7403964;19;921;-66
2022/12/22 16:34:20;;;;;;;;;;;;;;;12.68;62.03;100971.84;7403509;19;992;-67
2022/12/22 16:36:48;;;;;;;;;;;;;;;12.70;62.03;100983.22;7403470;19;1039;-66
2022/12/22 16:39:19;;;;;;;;;;;;;;;12.71;61.82;100980.47;7402669;19;1842;-67
2022/12/22 16:41:48;;;;;;;;;;;;;;;12.71;62.00;100972.53;7403678;19;997;-66
2022/12/22 16:44:21;;;;;;;;;;;;;;;12.61;62.16;100976.63;7403182;19;814;-66
2022/12/22 16:46:49;;;;;;;;;;;;;;;12.53;62.28;100962.94;7403562;19;964;-67